createdAt,value
2019-02-16T00:00:40.187Z,78.60
2019-02-16T00:03:26.110Z,78.60
2019-02-16T00:06:05.943Z,78.80
2019-02-16T00:08:46.044Z,78.10
2019-02-16T00:11:25.333Z,78.20
2019-02-16T00:14:04.518Z,77.40
2019-02-16T00:16:43.965Z,77.80
2019-02-16T00:19:23.358Z,77.80
2019-02-16T00:22:03.458Z,77.60
2019-02-16T00:24:42.755Z,77.30
2019-02-16T00:27:22.194Z,76.80
2019-02-16T00:30:01.298Z,76.30
2019-02-16T00:32:41.655Z,77.10
2019-02-16T00:35:21.945Z,76.10
2019-02-16T00:38:01.383Z,76.30
2019-02-16T00:40:43.852Z,75.10
2019-02-16T00:43:23.014Z,75.20
2019-02-16T00:46:04.461Z,75.20
2019-02-16T00:48:43.681Z,75.50
2019-02-16T00:51:25.885Z,75.70
2019-02-16T00:54:08.236Z,75.70
2019-02-16T00:56:49.109Z,75.50
2019-02-16T00:59:28.400Z,75.30
2019-02-16T01:02:10.190Z,74.90
2019-02-16T01:04:49.962Z,75.10
2019-02-16T01:07:28.887Z,74.80
2019-02-16T01:10:08.659Z,74.80
2019-02-16T01:12:51.561Z,73.60
2019-02-16T01:15:30.497Z,72.80
2019-02-16T01:18:09.737Z,72.30
2019-02-16T01:20:48.463Z,72.40
2019-02-16T01:23:28.783Z,72.20
2019-02-16T01:26:08.009Z,72.20
2019-02-16T01:28:47.626Z,71.90
2019-02-16T01:31:28.077Z,70.70
2019-02-16T01:34:10.370Z,70.00
2019-02-16T01:36:47.636Z,69.90
2019-02-16T01:39:29.067Z,70.00
2019-02-16T01:42:08.704Z,70.60
2019-02-16T01:44:48.825Z,70.90
2019-02-16T01:47:28.919Z,72.30
2019-02-16T01:50:08.430Z,72.20
2019-02-16T01:52:48.116Z,71.40
2019-02-16T01:55:28.334Z,69.90
2019-02-16T01:58:07.960Z,68.20
2019-02-16T02:00:48.162Z,68.00
2019-02-16T02:03:27.435Z,66.70
2019-02-16T02:06:07.086Z,65.50
2019-02-16T02:08:47.053Z,64.20
2019-02-16T02:11:26.052Z,62.00
2019-02-16T02:14:05.049Z,62.80
2019-02-16T02:16:44.147Z,64.20
2019-02-16T02:19:23.191Z,64.50
2019-02-16T02:22:02.243Z,64.70
2019-02-16T02:24:42.717Z,63.50
2019-02-16T02:27:21.993Z,65.00
2019-02-16T02:30:01.128Z,65.30
2019-02-16T02:32:41.646Z,64.70
2019-02-16T02:35:20.694Z,65.10
2019-02-16T02:37:59.805Z,64.60
2019-02-16T02:40:38.919Z,65.30
2019-02-16T02:43:18.186Z,63.70
2019-02-16T02:45:58.319Z,63.90
2019-02-16T02:48:38.070Z,63.50
2019-02-16T02:51:17.769Z,62.80
2019-02-16T02:53:56.904Z,62.70
2019-02-16T02:56:36.151Z,61.80
2019-02-16T02:59:17.496Z,61.30
2019-02-16T03:01:56.833Z,60.20
2019-02-16T03:04:36.028Z,60.50
2019-02-16T03:07:17.593Z,61.70
2019-02-16T03:09:56.931Z,61.50
2019-02-16T03:12:36.209Z,61.30
2019-02-16T03:15:17.447Z,60.90
2019-02-16T03:17:58.232Z,59.00
2019-02-16T03:20:39.448Z,57.30
2019-02-16T03:23:22.471Z,57.90
2019-02-16T03:26:12.128Z,58.40
2019-02-16T03:29:01.039Z,58.70
2019-02-16T03:32:19.219Z,60.30
2019-02-16T03:35:56.256Z,58.30
2019-02-16T03:38:57.704Z,59.30
2019-02-16T03:41:37.421Z,58.10
2019-02-16T03:44:16.486Z,59.00
2019-02-16T03:46:56.750Z,59.40
2019-02-16T03:49:35.839Z,57.00
2019-02-16T03:52:17.471Z,57.30
2019-02-16T03:54:56.809Z,56.20
2019-02-16T03:57:37.192Z,55.10
2019-02-16T04:00:16.580Z,54.60
2019-02-16T04:02:55.910Z,53.70
2019-02-16T04:05:35.935Z,53.70
2019-02-16T04:08:14.869Z,53.70
2019-02-16T04:10:54.326Z,54.70
2019-02-16T04:13:34.036Z,55.90
2019-02-16T04:16:13.684Z,55.20
2019-02-16T04:18:53.272Z,53.20
2019-02-16T04:21:32.468Z,54.50
2019-02-16T04:24:11.589Z,56.40
2019-02-16T04:26:54.704Z,55.90
2019-02-16T04:29:35.162Z,56.80
2019-02-16T04:32:14.836Z,57.90
2019-02-16T04:34:54.924Z,56.60
2019-02-16T04:37:35.555Z,56.10
2019-02-16T04:40:16.061Z,55.00
2019-02-16T04:42:55.278Z,56.00
2019-02-16T04:45:34.576Z,55.50
2019-02-16T04:48:13.905Z,55.50
2019-02-16T04:50:52.972Z,54.70
2019-02-16T04:53:32.904Z,55.50
2019-02-16T04:56:11.833Z,54.20
2019-02-16T04:58:51.638Z,54.80
2019-02-16T05:01:32.054Z,54.20
2019-02-16T05:04:11.202Z,54.40
2019-02-16T05:06:52.572Z,54.00
2019-02-16T05:09:34.273Z,54.00
2019-02-16T05:12:14.630Z,54.80
2019-02-16T05:14:54.874Z,53.70
2019-02-16T05:17:35.755Z,53.10
2019-02-16T05:20:14.881Z,54.10
2019-02-16T05:22:55.092Z,55.40
2019-02-16T05:25:36.388Z,52.90
2019-02-16T05:28:16.624Z,53.40
2019-02-16T05:30:55.536Z,52.00
2019-02-16T05:33:34.557Z,53.30
2019-02-16T05:36:13.631Z,52.20
2019-02-16T05:38:54.786Z,52.20
2019-02-16T05:41:33.633Z,52.90
2019-02-16T05:44:12.951Z,52.30
2019-02-16T05:46:52.382Z,53.20
2019-02-16T05:49:32.790Z,52.50
2019-02-16T05:52:12.959Z,53.90
2019-02-16T05:54:52.379Z,53.60
2019-02-16T05:57:31.487Z,52.10
2019-02-16T06:00:16.005Z,51.80
2019-02-16T06:03:05.106Z,51.00
2019-02-16T06:05:47.281Z,51.10
2019-02-16T06:08:28.921Z,51.10
2019-02-16T06:11:09.156Z,51.40
2019-02-16T06:13:48.385Z,51.00
2019-02-16T06:16:28.563Z,50.50
2019-02-16T06:19:08.410Z,51.30
2019-02-16T06:21:47.678Z,50.60
2019-02-16T06:24:26.760Z,50.60
2019-02-16T06:27:06.424Z,50.10
2019-02-16T06:29:45.992Z,49.80
2019-02-16T06:32:26.288Z,48.40
2019-02-16T06:35:35.151Z,49.10
2019-02-16T06:38:17.324Z,49.30
2019-02-16T06:40:56.494Z,48.10
2019-02-16T06:43:35.303Z,47.90
2019-02-16T06:46:14.619Z,47.40
2019-02-16T06:49:02.798Z,48.50
2019-02-16T06:51:44.166Z,48.50
2019-02-16T06:54:23.534Z,48.10
2019-02-16T06:57:17.180Z,48.40
2019-02-16T06:59:56.550Z,47.90
2019-02-16T07:02:36.684Z,47.70
2019-02-16T07:05:18.791Z,50.00
2019-02-16T07:07:57.778Z,51.50
2019-02-16T07:10:36.948Z,50.60
2019-02-16T07:13:16.207Z,51.80
2019-02-16T07:16:12.900Z,51.10
2019-02-16T07:19:01.351Z,52.00
2019-02-16T07:21:41.064Z,53.20
2019-02-16T07:24:20.297Z,53.20
2019-02-16T07:26:59.556Z,54.30
2019-02-16T07:29:38.679Z,52.70
2019-02-16T07:32:17.930Z,52.50
2019-02-16T07:34:58.062Z,53.40
2019-02-16T07:37:38.155Z,53.30
2019-02-16T07:40:19.180Z,51.60
2019-02-16T07:42:59.587Z,51.90
2019-02-16T07:45:48.359Z,51.50
2019-02-16T07:48:41.174Z,52.20
2019-02-16T07:51:30.946Z,52.60
2019-02-16T07:54:16.388Z,52.30
2019-02-16T07:57:17.379Z,52.30
2019-02-16T08:00:15.345Z,52.60
2019-02-16T08:03:15.909Z,52.20
2019-02-16T08:06:15.518Z,52.90
2019-02-16T08:09:02.902Z,52.30
2019-02-16T08:12:05.444Z,53.30
2019-02-16T08:15:02.502Z,53.90
2019-02-16T08:18:04.205Z,53.90
2019-02-16T08:21:14.161Z,54.00
2019-02-16T08:24:20.839Z,54.60
2019-02-16T08:27:09.412Z,55.30
2019-02-16T08:29:59.672Z,55.90
2019-02-16T08:32:55.725Z,56.10
2019-02-16T08:35:50.792Z,56.80
2019-02-16T08:39:01.621Z,56.90
2019-02-16T08:41:56.376Z,57.10
2019-02-16T08:44:49.097Z,58.00
2019-02-16T08:47:54.332Z,58.20
2019-02-16T08:50:41.715Z,57.40
2019-02-16T08:53:39.987Z,57.90
2019-02-16T08:56:31.495Z,58.40
2019-02-16T08:59:35.527Z,58.50
2019-02-16T09:02:26.429Z,58.30
2019-02-16T09:05:16.594Z,58.90
2019-02-16T09:08:05.736Z,58.50
2019-02-16T09:11:05.872Z,59.50
2019-02-16T09:14:00.932Z,60.60
2019-02-16T09:16:49.549Z,60.60
2019-02-16T09:19:50.502Z,60.20
2019-02-16T09:22:51.358Z,61.90
2019-02-16T09:25:57.989Z,60.60
2019-02-16T09:29:04.100Z,60.60
2019-02-16T09:32:02.168Z,60.40
2019-02-16T09:35:12.736Z,60.80
2019-02-16T09:38:19.928Z,61.10
2019-02-16T09:41:32.169Z,62.00
2019-02-16T09:44:35.265Z,63.00
2019-02-16T09:47:31.231Z,64.30
2019-02-16T09:50:34.416Z,62.20
2019-02-16T09:53:32.821Z,62.20
2019-02-16T09:56:45.550Z,63.40
2019-02-16T09:59:51.194Z,63.20
2019-02-16T10:02:55.346Z,64.90
2019-02-16T10:05:54.580Z,62.70
2019-02-16T10:12:47.614Z,64.60
2019-02-16T10:16:08.265Z,64.00
2019-02-16T10:22:59.151Z,67.50
2019-02-16T10:26:08.978Z,66.30
2019-02-16T10:29:02.779Z,66.20
2019-02-16T10:32:04.949Z,66.80
2019-02-16T10:39:17.847Z,67.30
2019-02-16T10:42:31.039Z,68.20
2019-02-16T10:45:40.884Z,68.70
2019-02-16T10:48:40.301Z,69.40
2019-02-16T10:51:37.997Z,69.40
2019-02-16T10:54:30.813Z,70.20
2019-02-16T11:01:06.388Z,71.30
2019-02-16T11:03:56.309Z,72.40
2019-02-16T11:06:59.492Z,72.50
2019-02-16T11:10:17.612Z,72.20
2019-02-16T11:13:18.883Z,72.20
2019-02-16T11:20:09.118Z,73.40
2019-02-16T11:26:49.084Z,71.90
2019-02-16T11:29:51.822Z,72.30
2019-02-16T11:32:51.426Z,71.90
2019-02-16T11:35:37.382Z,70.70
2019-02-16T11:38:36.648Z,70.10
2019-02-16T11:41:20.034Z,70.80
2019-02-16T11:44:20.545Z,70.60
2019-02-16T11:47:22.483Z,70.40
2019-02-16T11:50:22.813Z,70.10
2019-02-16T11:53:36.016Z,70.70
2019-02-16T11:56:51.650Z,71.30
2019-02-16T12:00:07.620Z,70.00
2019-02-16T12:02:58.129Z,69.50
2019-02-16T12:05:51.589Z,70.80
2019-02-16T12:08:45.877Z,72.10
2019-02-16T12:11:51.761Z,71.50
2019-02-16T12:14:48.984Z,70.90
2019-02-16T12:18:13.104Z,71.90
2019-02-16T12:21:15.543Z,72.70
2019-02-16T12:28:30.551Z,71.80
2019-02-16T12:31:26.273Z,74.20
2019-02-16T12:34:21.720Z,74.10
2019-02-16T12:37:10.558Z,73.00
2019-02-16T12:39:59.654Z,72.70
2019-02-16T12:43:00.663Z,73.60
2019-02-16T12:45:51.337Z,73.90
2019-02-16T12:48:38.617Z,73.50
2019-02-16T12:51:41.989Z,73.70
2019-02-16T12:54:32.309Z,73.80
2019-02-16T13:01:21.739Z,73.80
2019-02-16T13:04:39.101Z,73.60
2019-02-16T13:07:34.197Z,73.70
2019-02-16T13:10:33.360Z,73.90
2019-02-16T13:13:50.434Z,73.70
2019-02-16T13:16:47.509Z,73.10
2019-02-16T13:19:47.391Z,73.20
2019-02-16T13:22:46.374Z,73.30
2019-02-16T13:25:58.831Z,72.90
2019-02-16T13:41:47.206Z,73.70
2019-02-16T13:45:02.427Z,74.00
2019-02-16T13:48:13.023Z,73.70
2019-02-16T13:51:37.832Z,74.00
2019-02-16T13:54:43.620Z,73.60
2019-02-16T13:57:52.445Z,74.10
2019-02-16T14:01:08.085Z,74.00
2019-02-16T14:04:47.227Z,73.20
2019-02-16T14:08:03.439Z,73.90
2019-02-16T14:11:02.835Z,73.70
2019-02-16T14:14:19.758Z,73.20
2019-02-16T14:17:34.826Z,72.80
2019-02-16T14:48:54.225Z,73.40
2019-02-16T14:52:17.266Z,72.80
2019-02-16T14:55:17.988Z,72.50
2019-02-16T14:58:16.281Z,72.80
2019-02-16T15:01:08.055Z,72.90
2019-02-16T15:07:34.045Z,72.80
2019-02-16T15:10:22.311Z,73.10
2019-02-16T15:13:05.687Z,73.80
2019-02-16T15:15:52.359Z,72.80
2019-02-16T15:18:33.605Z,73.30
2019-02-16T15:21:13.834Z,73.50
2019-02-16T15:23:54.647Z,73.70
2019-02-16T15:26:36.869Z,73.80
2019-02-16T15:29:17.120Z,73.50
2019-02-16T15:31:57.624Z,74.20
2019-02-16T15:34:38.072Z,74.50
2019-02-16T15:37:17.517Z,74.10
2019-02-16T15:40:03.577Z,73.60
2019-02-16T15:42:47.075Z,73.70
2019-02-16T15:45:30.536Z,74.30
2019-02-16T15:48:13.368Z,74.90
2019-02-16T15:50:53.397Z,74.10
2019-02-16T15:53:34.100Z,74.10
2019-02-16T15:56:14.994Z,74.10
2019-02-16T15:58:59.818Z,74.30
2019-02-16T16:01:39.986Z,73.90
2019-02-16T16:04:21.957Z,73.30
2019-02-16T16:07:13.405Z,73.50
2019-02-16T16:10:23.310Z,73.70
2019-02-16T16:13:20.357Z,74.30
2019-02-16T16:16:24.362Z,73.30
2019-02-16T16:19:20.298Z,74.00
2019-02-16T16:22:06.907Z,74.50
2019-02-16T16:24:57.574Z,74.50
2019-02-16T16:28:06.113Z,73.90
2019-02-16T16:31:06.688Z,73.70
2019-02-16T16:34:02.692Z,74.50
2019-02-16T16:37:03.861Z,74.60
2019-02-16T16:40:03.623Z,74.10
2019-02-16T16:43:10.981Z,73.70
2019-02-16T16:46:05.967Z,74.00
2019-02-16T16:49:06.895Z,74.40
2019-02-16T16:52:20.951Z,74.60
2019-02-16T16:55:12.339Z,73.80
2019-02-16T16:58:06.954Z,74.30
2019-02-16T17:01:10.047Z,74.20
2019-02-16T17:04:25.640Z,74.10
2019-02-16T17:07:24.820Z,73.70
2019-02-16T17:10:22.686Z,73.90
2019-02-16T17:13:09.912Z,74.00
2019-02-16T17:16:17.007Z,74.20
2019-02-16T17:19:10.820Z,74.20
2019-02-16T17:22:11.324Z,73.80
2019-02-16T17:25:05.465Z,73.60
2019-02-16T17:28:11.910Z,73.80
2019-02-16T17:31:07.087Z,74.20
2019-02-16T17:34:07.335Z,74.10
2019-02-16T17:37:06.195Z,73.70
2019-02-16T17:39:57.954Z,73.50
2019-02-16T17:42:54.677Z,74.10
2019-02-16T17:45:42.438Z,74.10
2019-02-16T17:48:48.251Z,74.40
2019-02-16T17:51:43.867Z,74.00
2019-02-16T17:54:47.184Z,74.90
2019-02-16T17:57:34.618Z,75.50
2019-02-16T18:00:27.182Z,75.80
2019-02-16T18:03:24.616Z,75.50
2019-02-16T18:06:20.236Z,75.70
2019-02-16T18:09:19.266Z,75.90
2019-02-16T18:12:16.699Z,75.60
2019-02-16T18:15:06.618Z,74.70
2019-02-16T18:17:57.836Z,75.00
2019-02-16T18:20:54.022Z,75.20
2019-02-16T18:23:43.721Z,75.10
2019-02-16T18:26:39.832Z,74.10
2019-02-16T18:29:45.300Z,73.90
2019-02-16T18:32:57.999Z,74.00
2019-02-16T18:36:08.164Z,73.90
2019-02-16T18:38:54.645Z,73.30
2019-02-16T18:41:53.700Z,73.00
2019-02-16T18:44:42.761Z,73.30
2019-02-16T18:47:44.463Z,73.90
2019-02-16T18:50:48.821Z,74.00
2019-02-16T18:53:53.185Z,73.60
2019-02-16T18:56:50.283Z,73.40
2019-02-16T18:59:50.202Z,73.90
2019-02-16T19:02:46.902Z,73.70
2019-02-16T19:05:46.917Z,73.30
2019-02-16T19:08:45.865Z,73.50
2019-02-16T19:11:51.968Z,74.20
2019-02-16T19:14:44.381Z,74.30
2019-02-16T19:17:40.319Z,75.00
2019-02-16T19:20:32.419Z,74.40
2019-02-16T19:23:47.925Z,74.20
2019-02-16T19:26:34.315Z,74.50
2019-02-16T19:29:31.727Z,74.80
2019-02-16T19:32:34.987Z,74.50
2019-02-16T19:35:35.621Z,74.40
2019-02-16T19:38:35.736Z,74.50
2019-02-16T19:41:39.455Z,75.20
2019-02-16T19:44:36.904Z,75.00
2019-02-16T19:47:32.573Z,74.70
2019-02-16T19:50:27.264Z,75.10
2019-02-16T19:53:37.476Z,76.00
2019-02-16T19:56:23.796Z,75.70
2019-02-16T19:59:21.905Z,75.30
2019-02-16T20:02:21.363Z,75.10
2019-02-16T20:05:18.325Z,75.30
2019-02-16T20:08:24.629Z,75.40
2019-02-16T20:11:21.936Z,75.30
2019-02-16T20:14:18.812Z,75.20
2019-02-16T20:17:16.033Z,75.80
2019-02-16T20:20:12.067Z,76.00
2019-02-16T20:23:10.352Z,76.00
2019-02-16T20:26:12.146Z,75.30
2019-02-16T20:28:59.756Z,75.30
2019-02-16T20:31:55.254Z,75.90
2019-02-16T20:34:48.190Z,76.20
2019-02-16T20:37:44.960Z,76.10
2019-02-16T20:40:46.571Z,76.10
2019-02-16T20:43:33.343Z,77.60
2019-02-16T20:46:24.057Z,78.00
2019-02-16T20:49:19.880Z,78.00
2019-02-16T20:52:08.118Z,77.40
2019-02-16T20:55:01.498Z,77.70
2019-02-16T20:57:56.226Z,78.40
2019-02-16T21:00:53.108Z,78.30
2019-02-16T21:03:44.165Z,77.80
2019-02-16T21:06:57.041Z,77.50
2019-02-16T21:09:57.882Z,77.80
2019-02-16T21:13:02.103Z,78.20
2019-02-16T21:15:52.379Z,78.50
2019-02-16T21:18:43.276Z,78.60
2019-02-16T21:21:43.763Z,78.10
2019-02-16T21:24:46.966Z,77.80
2019-02-16T21:27:44.320Z,77.90
2019-02-16T21:30:42.465Z,77.10
2019-02-16T21:33:26.904Z,77.00
2019-02-16T21:36:22.905Z,76.80
2019-02-16T21:39:24.226Z,76.80
2019-02-16T21:42:14.100Z,77.20
2019-02-16T21:45:17.200Z,77.40
2019-02-16T21:48:30.197Z,76.70
2019-02-16T21:51:26.025Z,76.90
2019-02-16T21:54:38.534Z,77.30
2019-02-16T21:57:28.851Z,77.00
2019-02-16T22:00:32.945Z,76.50
2019-02-16T22:03:36.788Z,76.50
2019-02-16T22:06:57.872Z,77.10
2019-02-16T22:09:54.306Z,76.60
2019-02-16T22:12:50.949Z,75.80
2019-02-16T22:15:30.029Z,75.30
2019-02-16T22:18:10.153Z,76.20
2019-02-16T22:20:49.349Z,77.10
2019-02-16T22:23:28.995Z,76.90
2019-02-16T22:26:08.247Z,76.30
2019-02-16T22:28:48.365Z,76.70
2019-02-16T22:31:27.407Z,77.20
2019-02-16T22:34:08.528Z,77.10
2019-02-16T22:36:48.703Z,76.30
2019-02-16T22:39:28.836Z,76.40
2019-02-16T22:42:11.053Z,76.90
2019-02-16T22:44:50.928Z,76.90
2019-02-16T22:47:32.266Z,76.90
2019-02-16T22:50:12.357Z,75.60
2019-02-16T22:52:53.952Z,75.70
2019-02-16T22:55:33.251Z,76.20
2019-02-16T22:58:12.372Z,76.10
2019-02-16T23:00:55.395Z,75.80
2019-02-16T23:03:35.880Z,75.40
2019-02-16T23:06:15.159Z,75.80
2019-02-16T23:09:31.737Z,76.40
2019-02-16T23:16:22.527Z,75.50
2019-02-16T23:19:02.881Z,75.30
2019-02-16T23:21:42.542Z,75.80
2019-02-16T23:24:22.530Z,75.60
2019-02-16T23:27:01.649Z,75.10
2019-02-16T23:29:41.514Z,75.00
2019-02-16T23:32:20.662Z,75.50
2019-02-16T23:35:00.407Z,76.00
2019-02-16T23:37:42.319Z,76.10
2019-02-16T23:40:21.855Z,75.50
2019-02-16T23:43:00.821Z,75.30
2019-02-16T23:45:39.974Z,75.70
2019-02-16T23:48:24.668Z,75.90
2019-02-16T23:51:03.414Z,75.90
2019-02-16T23:53:46.136Z,75.00
2019-02-16T23:56:22.668Z,74.70
2019-02-16T23:59:01.632Z,74.70
